sensor_id;sensor_type;location;lat;lon;timestamp;P1;durP1;ratioP1;P2;durP2;ratioP2
72205;SDS011;60111;48.286;7.812;2022-09-09T00:00:20;3.40;;;1.00;;
72205;SDS011;60111;48.286;7.812;2022-09-09T00:03:00;3.20;;;1.10;;
72205;SDS011;60111;48.286;7.812;2022-09-09T00:05:49;2.80;;;1.00;;
72205;SDS011;60111;48.286;7.812;2022-09-09T00:08:25;3.57;;;1.13;;
72205;SDS011;60111;48.286;7.812;2022-09-09T00:10:59;2.15;;;1.20;;
72205;SDS011;60111;48.286;7.812;2022-09-09T00:13:48;2.27;;;1.30;;
72205;SDS011;60111;48.286;7.812;2022-09-09T00:16:27;5.20;;;1.32;;
72205;SDS011;60111;48.286;7.812;2022-09-09T00:24:53;4.40;;;1.20;;
72205;SDS011;60111;48.286;7.812;2022-09-09T00:27:39;3.60;;;1.10;;
72205;SDS011;60111;48.286;7.812;2022-09-09T00:30:22;4.62;;;1.07;;
72205;SDS011;60111;48.286;7.812;2022-09-09T00:33:00;1.87;;;0.85;;
72205;SDS011;60111;48.286;7.812;2022-09-09T00:35:38;4.22;;;0.90;;
72205;SDS011;60111;48.286;7.812;2022-09-09T00:38:31;4.47;;;1.30;;
72205;SDS011;60111;48.286;7.812;2022-09-09T00:41:25;5.15;;;1.10;;
72205;SDS011;60111;48.286;7.812;2022-09-09T00:49:56;4.62;;;1.20;;
72205;SDS011;60111;48.286;7.812;2022-09-09T00:52:40;1.62;;;0.88;;
72205;SDS011;60111;48.286;7.812;2022-09-09T00:55:15;2.37;;;0.80;;
72205;SDS011;60111;48.286;7.812;2022-09-09T00:57:56;2.35;;;0.75;;
72205;SDS011;60111;48.286;7.812;2022-09-09T01:00:35;5.00;;;0.90;;
72205;SDS011;60111;48.286;7.812;2022-09-09T01:03:15;1.47;;;0.73;;
72205;SDS011;60111;48.286;7.812;2022-09-09T01:11:26;2.02;;;0.62;;
72205;SDS011;60111;48.286;7.812;2022-09-09T01:16:50;2.50;;;0.70;;
72205;SDS011;60111;48.286;7.812;2022-09-09T01:19:35;0.40;;;0.40;;
72205;SDS011;60111;48.286;7.812;2022-09-09T01:27:24;2.22;;;0.82;;
72205;SDS011;60111;48.286;7.812;2022-09-09T01:29:57;1.00;;;0.43;;
72205;SDS011;60111;48.286;7.812;2022-09-09T01:32:41;0.47;;;0.47;;
72205;SDS011;60111;48.286;7.812;2022-09-09T01:35:18;2.42;;;0.55;;
72205;SDS011;60111;48.286;7.812;2022-09-09T01:38:06;1.85;;;0.53;;
72205;SDS011;60111;48.286;7.812;2022-09-09T01:40:39;2.42;;;0.70;;
72205;SDS011;60111;48.286;7.812;2022-09-09T01:43:12;2.25;;;0.82;;
72205;SDS011;60111;48.286;7.812;2022-09-09T01:45:45;1.30;;;0.50;;
72205;SDS011;60111;48.286;7.812;2022-09-09T01:48:21;1.67;;;0.68;;
72205;SDS011;60111;48.286;7.812;2022-09-09T01:50:55;0.77;;;0.47;;
72205;SDS011;60111;48.286;7.812;2022-09-09T01:53:28;1.40;;;0.62;;
72205;SDS011;60111;48.286;7.812;2022-09-09T01:56:47;1.87;;;0.47;;
72205;SDS011;60111;48.286;7.812;2022-09-09T01:59:01;1.25;;;0.65;;
72205;SDS011;60111;48.286;7.812;2022-09-09T02:01:46;2.67;;;0.70;;
72205;SDS011;60111;48.286;7.812;2022-09-09T02:04:37;2.10;;;0.60;;
72205;SDS011;60111;48.286;7.812;2022-09-09T02:12:46;2.80;;;0.60;;
72205;SDS011;60111;48.286;7.812;2022-09-09T02:15:26;0.50;;;0.45;;
72205;SDS011;60111;48.286;7.812;2022-09-09T02:17:59;0.93;;;0.53;;
72205;SDS011;60111;48.286;7.812;2022-09-09T02:20:40;2.83;;;0.55;;
72205;SDS011;60111;48.286;7.812;2022-09-09T02:23:10;1.72;;;0.70;;
72205;SDS011;60111;48.286;7.812;2022-09-09T02:25:44;1.33;;;0.60;;
72205;SDS011;60111;48.286;7.812;2022-09-09T02:28:18;1.23;;;0.53;;
72205;SDS011;60111;48.286;7.812;2022-09-09T02:30:54;1.70;;;0.60;;
72205;SDS011;60111;48.286;7.812;2022-09-09T02:33:28;3.03;;;0.70;;
72205;SDS011;60111;48.286;7.812;2022-09-09T02:36:03;4.50;;;0.78;;
72205;SDS011;60111;48.286;7.812;2022-09-09T02:38:40;1.57;;;0.45;;
72205;SDS011;60111;48.286;7.812;2022-09-09T02:41:14;0.80;;;0.57;;
72205;SDS011;60111;48.286;7.812;2022-09-09T02:43:47;2.30;;;0.80;;
72205;SDS011;60111;48.286;7.812;2022-09-09T02:49:11;4.03;;;0.98;;
72205;SDS011;60111;48.286;7.812;2022-09-09T02:52:04;1.60;;;0.80;;
72205;SDS011;60111;48.286;7.812;2022-09-09T02:54:39;3.37;;;1.10;;
72205;SDS011;60111;48.286;7.812;2022-09-09T02:59:47;2.43;;;1.03;;
72205;SDS011;60111;48.286;7.812;2022-09-09T03:02:22;2.55;;;1.00;;
72205;SDS011;60111;48.286;7.812;2022-09-09T03:04:56;3.50;;;1.07;;
72205;SDS011;60111;48.286;7.812;2022-09-09T03:07:28;3.42;;;1.20;;
72205;SDS011;60111;48.286;7.812;2022-09-09T03:10:01;4.72;;;1.20;;
72205;SDS011;60111;48.286;7.812;2022-09-09T03:12:35;3.33;;;1.17;;
72205;SDS011;60111;48.286;7.812;2022-09-09T03:15:07;3.40;;;1.10;;
72205;SDS011;60111;48.286;7.812;2022-09-09T03:17:40;5.33;;;1.50;;
72205;SDS011;60111;48.286;7.812;2022-09-09T03:20:13;2.25;;;1.22;;
72205;SDS011;60111;48.286;7.812;2022-09-09T03:22:46;4.53;;;1.52;;
72205;SDS011;60111;48.286;7.812;2022-09-09T03:25:18;4.07;;;1.20;;
72205;SDS011;60111;48.286;7.812;2022-09-09T03:27:53;5.30;;;1.20;;
72205;SDS011;60111;48.286;7.812;2022-09-09T03:30:26;3.70;;;1.50;;
72205;SDS011;60111;48.286;7.812;2022-09-09T03:33:00;3.90;;;1.40;;
72205;SDS011;60111;48.286;7.812;2022-09-09T03:35:32;4.20;;;1.10;;
72205;SDS011;60111;48.286;7.812;2022-09-09T03:38:06;3.37;;;1.20;;
72205;SDS011;60111;48.286;7.812;2022-09-09T03:40:38;7.10;;;1.20;;
72205;SDS011;60111;48.286;7.812;2022-09-09T03:43:11;5.72;;;1.62;;
72205;SDS011;60111;48.286;7.812;2022-09-09T03:45:46;3.40;;;1.20;;
72205;SDS011;60111;48.286;7.812;2022-09-09T03:48:19;3.53;;;1.20;;
72205;SDS011;60111;48.286;7.812;2022-09-09T03:50:53;5.08;;;1.50;;
72205;SDS011;60111;48.286;7.812;2022-09-09T03:53:28;3.22;;;1.30;;
72205;SDS011;60111;48.286;7.812;2022-09-09T03:56:01;7.12;;;1.42;;
72205;SDS011;60111;48.286;7.812;2022-09-09T03:58:35;5.12;;;1.47;;
72205;SDS011;60111;48.286;7.812;2022-09-09T04:01:11;4.62;;;1.60;;
72205;SDS011;60111;48.286;7.812;2022-09-09T04:03:49;4.57;;;1.10;;
72205;SDS011;60111;48.286;7.812;2022-09-09T04:06:18;3.17;;;1.20;;
72205;SDS011;60111;48.286;7.812;2022-09-09T04:08:51;3.73;;;1.20;;
72205;SDS011;60111;48.286;7.812;2022-09-09T04:11:24;3.92;;;1.10;;
72205;SDS011;60111;48.286;7.812;2022-09-09T04:13:57;3.45;;;1.40;;
72205;SDS011;60111;48.286;7.812;2022-09-09T04:16:29;4.25;;;1.40;;
72205;SDS011;60111;48.286;7.812;2022-09-09T04:19:02;2.65;;;1.32;;
72205;SDS011;60111;48.286;7.812;2022-09-09T04:21:37;3.70;;;1.35;;
72205;SDS011;60111;48.286;7.812;2022-09-09T04:24:10;6.40;;;1.40;;
72205;SDS011;60111;48.286;7.812;2022-09-09T04:26:43;2.40;;;1.40;;
72205;SDS011;60111;48.286;7.812;2022-09-09T04:29:16;5.00;;;1.35;;
72205;SDS011;60111;48.286;7.812;2022-09-09T04:31:48;3.50;;;1.60;;
72205;SDS011;60111;48.286;7.812;2022-09-09T04:34:21;2.17;;;1.40;;
72205;SDS011;60111;48.286;7.812;2022-09-09T04:36:54;5.62;;;1.40;;
72205;SDS011;60111;48.286;7.812;2022-09-09T04:39:27;4.35;;;1.40;;
72205;SDS011;60111;48.286;7.812;2022-09-09T04:42:00;5.90;;;1.30;;
72205;SDS011;60111;48.286;7.812;2022-09-09T04:44:34;2.97;;;1.27;;
72205;SDS011;60111;48.286;7.812;2022-09-09T04:47:06;5.17;;;1.70;;
72205;SDS011;60111;48.286;7.812;2022-09-09T04:49:40;2.23;;;1.47;;
72205;SDS011;60111;48.286;7.812;2022-09-09T04:52:13;6.35;;;1.40;;
72205;SDS011;60111;48.286;7.812;2022-09-09T04:54:47;5.28;;;1.50;;
72205;SDS011;60111;48.286;7.812;2022-09-09T04:57:19;3.98;;;1.42;;
72205;SDS011;60111;48.286;7.812;2022-09-09T04:59:52;4.55;;;1.55;;
72205;SDS011;60111;48.286;7.812;2022-09-09T05:02:25;3.07;;;1.37;;
72205;SDS011;60111;48.286;7.812;2022-09-09T05:04:58;3.42;;;1.40;;
72205;SDS011;60111;48.286;7.812;2022-09-09T05:07:31;4.05;;;1.30;;
72205;SDS011;60111;48.286;7.812;2022-09-09T05:10:04;2.55;;;1.20;;
72205;SDS011;60111;48.286;7.812;2022-09-09T05:12:37;5.58;;;1.55;;
72205;SDS011;60111;48.286;7.812;2022-09-09T05:15:09;6.70;;;1.30;;
72205;SDS011;60111;48.286;7.812;2022-09-09T05:17:42;5.40;;;1.42;;
72205;SDS011;60111;48.286;7.812;2022-09-09T05:20:15;4.92;;;1.50;;
72205;SDS011;60111;48.286;7.812;2022-09-09T05:22:47;5.75;;;1.25;;
72205;SDS011;60111;48.286;7.812;2022-09-09T05:25:22;5.28;;;1.50;;
72205;SDS011;60111;48.286;7.812;2022-09-09T05:27:57;6.40;;;1.40;;
72205;SDS011;60111;48.286;7.812;2022-09-09T05:30:31;3.55;;;1.37;;
72205;SDS011;60111;48.286;7.812;2022-09-09T05:33:05;3.12;;;1.30;;
72205;SDS011;60111;48.286;7.812;2022-09-09T05:35:40;2.90;;;1.20;;
72205;SDS011;60111;48.286;7.812;2022-09-09T05:38:12;4.58;;;1.37;;
72205;SDS011;60111;48.286;7.812;2022-09-09T05:40:48;2.35;;;1.35;;
72205;SDS011;60111;48.286;7.812;2022-09-09T05:43:21;2.43;;;1.23;;
72205;SDS011;60111;48.286;7.812;2022-09-09T05:48:37;3.90;;;1.37;;
72205;SDS011;60111;48.286;7.812;2022-09-09T05:51:16;8.15;;;1.25;;
72205;SDS011;60111;48.286;7.812;2022-09-09T05:53:53;2.97;;;1.27;;
72205;SDS011;60111;48.286;7.812;2022-09-09T05:56:31;2.77;;;0.98;;
72205;SDS011;60111;48.286;7.812;2022-09-09T05:59:04;4.50;;;1.17;;
72205;SDS011;60111;48.286;7.812;2022-09-09T06:01:37;3.05;;;1.25;;
72205;SDS011;60111;48.286;7.812;2022-09-09T06:04:12;7.80;;;1.45;;
72205;SDS011;60111;48.286;7.812;2022-09-09T06:06:44;4.00;;;1.40;;
72205;SDS011;60111;48.286;7.812;2022-09-09T06:09:17;6.55;;;1.35;;
72205;SDS011;60111;48.286;7.812;2022-09-09T06:11:50;2.97;;;1.20;;
72205;SDS011;60111;48.286;7.812;2022-09-09T06:14:22;5.45;;;1.45;;
72205;SDS011;60111;48.286;7.812;2022-09-09T06:16:56;3.53;;;1.40;;
72205;SDS011;60111;48.286;7.812;2022-09-09T06:19:28;2.10;;;1.00;;
72205;SDS011;60111;48.286;7.812;2022-09-09T06:22:03;3.12;;;1.30;;
72205;SDS011;60111;48.286;7.812;2022-09-09T06:24:36;2.87;;;1.37;;
72205;SDS011;60111;48.286;7.812;2022-09-09T06:27:08;4.95;;;1.10;;
72205;SDS011;60111;48.286;7.812;2022-09-09T06:29:41;3.83;;;1.30;;
72205;SDS011;60111;48.286;7.812;2022-09-09T06:32:14;10.60;;;1.50;;
72205;SDS011;60111;48.286;7.812;2022-09-09T06:34:46;5.87;;;1.40;;
72205;SDS011;60111;48.286;7.812;2022-09-09T06:37:20;3.70;;;1.45;;
72205;SDS011;60111;48.286;7.812;2022-09-09T06:39:54;5.87;;;1.12;;
72205;SDS011;60111;48.286;7.812;2022-09-09T06:42:26;3.77;;;1.47;;
72205;SDS011;60111;48.286;7.812;2022-09-09T06:44:59;4.28;;;1.00;;
72205;SDS011;60111;48.286;7.812;2022-09-09T06:47:31;2.95;;;1.07;;
72205;SDS011;60111;48.286;7.812;2022-09-09T06:50:04;5.65;;;1.22;;
72205;SDS011;60111;48.286;7.812;2022-09-09T06:52:38;6.83;;;1.32;;
72205;SDS011;60111;48.286;7.812;2022-09-09T06:55:10;7.78;;;1.30;;
72205;SDS011;60111;48.286;7.812;2022-09-09T06:57:43;4.08;;;1.10;;
72205;SDS011;60111;48.286;7.812;2022-09-09T07:00:16;3.85;;;1.20;;
72205;SDS011;60111;48.286;7.812;2022-09-09T07:02:50;4.10;;;1.30;;
72205;SDS011;60111;48.286;7.812;2022-09-09T07:05:23;4.87;;;1.57;;
72205;SDS011;60111;48.286;7.812;2022-09-09T07:07:56;7.73;;;1.73;;
72205;SDS011;60111;48.286;7.812;2022-09-09T07:10:29;6.05;;;1.30;;
72205;SDS011;60111;48.286;7.812;2022-09-09T07:13:02;4.95;;;1.55;;
72205;SDS011;60111;48.286;7.812;2022-09-09T07:15:36;3.25;;;1.47;;
72205;SDS011;60111;48.286;7.812;2022-09-09T07:18:09;2.93;;;1.20;;
72205;SDS011;60111;48.286;7.812;2022-09-09T07:20:42;5.27;;;1.60;;
72205;SDS011;60111;48.286;7.812;2022-09-09T07:23:16;6.28;;;1.20;;
72205;SDS011;60111;48.286;7.812;2022-09-09T07:25:49;4.00;;;1.47;;
72205;SDS011;60111;48.286;7.812;2022-09-09T07:28:24;6.45;;;1.30;;
72205;SDS011;60111;48.286;7.812;2022-09-09T07:30:58;3.00;;;1.10;;
72205;SDS011;60111;48.286;7.812;2022-09-09T07:33:36;3.45;;;1.22;;
72205;SDS011;60111;48.286;7.812;2022-09-09T07:36:16;3.27;;;1.20;;
72205;SDS011;60111;48.286;7.812;2022-09-09T07:38:53;6.27;;;1.40;;
72205;SDS011;60111;48.286;7.812;2022-09-09T07:41:28;4.42;;;1.10;;
72205;SDS011;60111;48.286;7.812;2022-09-09T07:44:05;6.12;;;1.30;;
72205;SDS011;60111;48.286;7.812;2022-09-09T07:49:12;2.93;;;0.87;;
72205;SDS011;60111;48.286;7.812;2022-09-09T07:51:45;5.60;;;1.27;;
72205;SDS011;60111;48.286;7.812;2022-09-09T07:54:20;3.55;;;1.10;;
72205;SDS011;60111;48.286;7.812;2022-09-09T07:56:54;3.67;;;0.90;;
72205;SDS011;60111;48.286;7.812;2022-09-09T07:59:26;3.08;;;1.30;;
72205;SDS011;60111;48.286;7.812;2022-09-09T08:02:01;7.22;;;1.40;;
72205;SDS011;60111;48.286;7.812;2022-09-09T08:04:33;5.60;;;1.17;;
72205;SDS011;60111;48.286;7.812;2022-09-09T08:07:06;5.37;;;1.90;;
72205;SDS011;60111;48.286;7.812;2022-09-09T08:09:39;7.33;;;1.52;;
72205;SDS011;60111;48.286;7.812;2022-09-09T08:12:11;6.50;;;1.00;;
72205;SDS011;60111;48.286;7.812;2022-09-09T08:14:45;3.42;;;1.22;;
72205;SDS011;60111;48.286;7.812;2022-09-09T08:17:18;3.03;;;1.10;;
72205;SDS011;60111;48.286;7.812;2022-09-09T08:19:51;4.35;;;1.22;;
72205;SDS011;60111;48.286;7.812;2022-09-09T08:22:24;5.97;;;1.45;;
72205;SDS011;60111;48.286;7.812;2022-09-09T08:24:57;7.47;;;1.17;;
72205;SDS011;60111;48.286;7.812;2022-09-09T08:27:31;6.20;;;1.22;;
72205;SDS011;60111;48.286;7.812;2022-09-09T08:30:04;4.30;;;1.20;;
72205;SDS011;60111;48.286;7.812;2022-09-09T08:32:37;7.93;;;1.37;;
72205;SDS011;60111;48.286;7.812;2022-09-09T08:35:10;6.62;;;1.10;;
72205;SDS011;60111;48.286;7.812;2022-09-09T08:37:43;4.17;;;1.30;;
72205;SDS011;60111;48.286;7.812;2022-09-09T08:40:21;3.92;;;1.17;;
72205;SDS011;60111;48.286;7.812;2022-09-09T08:42:54;7.47;;;1.40;;
72205;SDS011;60111;48.286;7.812;2022-09-09T08:45:34;5.42;;;1.35;;
72205;SDS011;60111;48.286;7.812;2022-09-09T08:50:45;6.12;;;1.10;;
72205;SDS011;60111;48.286;7.812;2022-09-09T08:53:20;6.23;;;1.50;;
72205;SDS011;60111;48.286;7.812;2022-09-09T08:56:02;6.20;;;1.30;;
72205;SDS011;60111;48.286;7.812;2022-09-09T08:58:41;5.25;;;1.20;;
72205;SDS011;60111;48.286;7.812;2022-09-09T09:12:18;7.97;;;1.50;;
72205;SDS011;60111;48.286;7.812;2022-09-09T09:14:54;6.13;;;1.07;;
72205;SDS011;60111;48.286;7.812;2022-09-09T09:17:28;10.30;;;1.50;;
72205;SDS011;60111;48.286;7.812;2022-09-09T09:20:05;8.83;;;1.57;;
72205;SDS011;60111;48.286;7.812;2022-09-09T09:22:51;11.15;;;1.22;;
72205;SDS011;60111;48.286;7.812;2022-09-09T09:25:27;8.87;;;1.47;;
72205;SDS011;60111;48.286;7.812;2022-09-09T09:28:07;13.08;;;1.72;;
72205;SDS011;60111;48.286;7.812;2022-09-09T09:30:53;8.05;;;1.50;;
72205;SDS011;60111;48.286;7.812;2022-09-09T09:36:24;8.87;;;1.77;;
72205;SDS011;60111;48.286;7.812;2022-09-09T09:38:59;9.38;;;1.20;;
72205;SDS011;60111;48.286;7.812;2022-09-09T09:41:35;3.95;;;1.40;;
72205;SDS011;60111;48.286;7.812;2022-09-09T09:44:26;6.65;;;1.32;;
72205;SDS011;60111;48.286;7.812;2022-09-09T09:47:07;6.70;;;1.70;;
72205;SDS011;60111;48.286;7.812;2022-09-09T09:49:51;2.60;;;1.20;;
72205;SDS011;60111;48.286;7.812;2022-09-09T09:52:26;3.77;;;1.33;;
72205;SDS011;60111;48.286;7.812;2022-09-09T09:55:02;5.25;;;1.00;;
72205;SDS011;60111;48.286;7.812;2022-09-09T09:57:37;4.58;;;1.22;;
72205;SDS011;60111;48.286;7.812;2022-09-09T10:00:14;6.13;;;1.70;;
72205;SDS011;60111;48.286;7.812;2022-09-09T10:02:50;4.70;;;1.22;;
72205;SDS011;60111;48.286;7.812;2022-09-09T10:05:24;5.60;;;1.40;;
72205;SDS011;60111;48.286;7.812;2022-09-09T10:08:04;6.70;;;1.70;;
72205;SDS011;60111;48.286;7.812;2022-09-09T10:10:52;5.45;;;1.60;;
72205;SDS011;60111;48.286;7.812;2022-09-09T10:19:21;7.40;;;1.30;;
72205;SDS011;60111;48.286;7.812;2022-09-09T10:25:13;6.62;;;1.50;;
72205;SDS011;60111;48.286;7.812;2022-09-09T10:28:00;8.70;;;1.60;;
72205;SDS011;60111;48.286;7.812;2022-09-09T10:38:52;4.28;;;1.57;;
72205;SDS011;60111;48.286;7.812;2022-09-09T10:47:38;7.80;;;1.30;;
72205;SDS011;60111;48.286;7.812;2022-09-09T10:50:40;4.47;;;1.00;;
72205;SDS011;60111;48.286;7.812;2022-09-09T10:56:12;2.62;;;1.05;;
72205;SDS011;60111;48.286;7.812;2022-09-09T11:01:32;5.42;;;1.00;;
72205;SDS011;60111;48.286;7.812;2022-09-09T11:04:10;5.62;;;1.22;;
72205;SDS011;60111;48.286;7.812;2022-09-09T11:06:45;5.35;;;1.12;;
72205;SDS011;60111;48.286;7.812;2022-09-09T11:09:28;5.92;;;1.00;;
72205;SDS011;60111;48.286;7.812;2022-09-09T11:11:59;6.03;;;1.30;;
72205;SDS011;60111;48.286;7.812;2022-09-09T11:17:18;3.08;;;1.00;;
72205;SDS011;60111;48.286;7.812;2022-09-09T11:19:56;5.62;;;1.27;;
72205;SDS011;60111;48.286;7.812;2022-09-09T11:34:23;7.80;;;1.00;;
72205;SDS011;60111;48.286;7.812;2022-09-09T11:37:11;4.95;;;1.00;;
72205;SDS011;60111;48.286;7.812;2022-09-09T11:39:52;3.35;;;0.80;;
72205;SDS011;60111;48.286;7.812;2022-09-09T11:42:31;3.10;;;0.87;;
72205;SDS011;60111;48.286;7.812;2022-09-09T11:45:19;4.80;;;0.98;;
72205;SDS011;60111;48.286;7.812;2022-09-09T11:47:55;4.53;;;0.70;;
72205;SDS011;60111;48.286;7.812;2022-09-09T11:50:31;4.28;;;0.93;;
72205;SDS011;60111;48.286;7.812;2022-09-09T11:53:19;2.22;;;0.80;;
72205;SDS011;60111;48.286;7.812;2022-09-09T11:56:04;2.35;;;0.70;;
72205;SDS011;60111;48.286;7.812;2022-09-09T11:58:53;5.90;;;0.82;;
72205;SDS011;60111;48.286;7.812;2022-09-09T12:06:51;5.35;;;1.00;;
72205;SDS011;60111;48.286;7.812;2022-09-09T12:12:25;4.03;;;0.98;;
72205;SDS011;60111;48.286;7.812;2022-09-09T12:17:44;4.50;;;0.90;;
72205;SDS011;60111;48.286;7.812;2022-09-09T12:20:20;2.75;;;0.70;;
72205;SDS011;60111;48.286;7.812;2022-09-09T12:23:01;5.67;;;0.80;;
72205;SDS011;60111;48.286;7.812;2022-09-09T12:25:57;3.47;;;0.40;;
72205;SDS011;60111;48.286;7.812;2022-09-09T12:31:31;3.12;;;0.30;;
72205;SDS011;60111;48.286;7.812;2022-09-09T12:34:14;2.37;;;0.68;;
72205;SDS011;60111;48.286;7.812;2022-09-09T12:36:47;2.42;;;0.60;;
72205;SDS011;60111;48.286;7.812;2022-09-09T12:39:26;3.70;;;0.50;;
72205;SDS011;60111;48.286;7.812;2022-09-09T12:42:01;2.90;;;0.60;;
72205;SDS011;60111;48.286;7.812;2022-09-09T12:44:35;4.70;;;0.98;;
72205;SDS011;60111;48.286;7.812;2022-09-09T12:47:09;2.37;;;0.72;;
72205;SDS011;60111;48.286;7.812;2022-09-09T12:49:43;1.80;;;0.65;;
72205;SDS011;60111;48.286;7.812;2022-09-09T12:54:55;2.05;;;0.70;;
72205;SDS011;60111;48.286;7.812;2022-09-09T12:57:31;5.07;;;0.97;;
72205;SDS011;60111;48.286;7.812;2022-09-09T13:00:15;5.72;;;0.95;;
72205;SDS011;60111;48.286;7.812;2022-09-09T13:02:54;5.08;;;0.75;;
72205;SDS011;60111;48.286;7.812;2022-09-09T13:05:37;3.60;;;0.73;;
72205;SDS011;60111;48.286;7.812;2022-09-09T13:08:10;4.55;;;0.80;;
72205;SDS011;60111;48.286;7.812;2022-09-09T13:13:30;5.62;;;0.80;;
72205;SDS011;60111;48.286;7.812;2022-09-09T13:16:01;2.17;;;0.75;;
72205;SDS011;60111;48.286;7.812;2022-09-09T13:18:36;4.62;;;0.85;;
72205;SDS011;60111;48.286;7.812;2022-09-09T13:21:13;6.58;;;1.02;;
72205;SDS011;60111;48.286;7.812;2022-09-09T13:23:49;3.37;;;0.80;;
72205;SDS011;60111;48.286;7.812;2022-09-09T13:26:24;6.80;;;1.02;;
72205;SDS011;60111;48.286;7.812;2022-09-09T13:29:09;3.02;;;0.60;;
72205;SDS011;60111;48.286;7.812;2022-09-09T13:31:50;1.90;;;0.67;;
72205;SDS011;60111;48.286;7.812;2022-09-09T13:34:27;2.10;;;0.80;;
72205;SDS011;60111;48.286;7.812;2022-09-09T13:37:05;2.02;;;0.60;;
72205;SDS011;60111;48.286;7.812;2022-09-09T13:39:40;6.90;;;1.03;;
72205;SDS011;60111;48.286;7.812;2022-09-09T13:42:32;4.87;;;0.90;;
72205;SDS011;60111;48.286;7.812;2022-09-09T13:45:02;3.50;;;0.85;;
72205;SDS011;60111;48.286;7.812;2022-09-09T13:47:35;2.70;;;0.60;;
72205;SDS011;60111;48.286;7.812;2022-09-09T13:50:27;3.60;;;0.72;;
72205;SDS011;60111;48.286;7.812;2022-09-09T13:53:00;3.67;;;0.88;;
72205;SDS011;60111;48.286;7.812;2022-09-09T13:55:35;3.42;;;1.02;;
72205;SDS011;60111;48.286;7.812;2022-09-09T13:58:14;3.90;;;0.72;;
72205;SDS011;60111;48.286;7.812;2022-09-09T14:00:49;6.53;;;0.90;;
72205;SDS011;60111;48.286;7.812;2022-09-09T14:03:21;2.65;;;0.75;;
72205;SDS011;60111;48.286;7.812;2022-09-09T14:05:54;1.47;;;0.50;;
72205;SDS011;60111;48.286;7.812;2022-09-09T14:08:27;1.50;;;0.60;;
72205;SDS011;60111;48.286;7.812;2022-09-09T14:11:03;3.12;;;0.75;;
72205;SDS011;60111;48.286;7.812;2022-09-09T14:13:35;1.93;;;0.50;;
72205;SDS011;60111;48.286;7.812;2022-09-09T14:16:08;1.83;;;0.50;;
72205;SDS011;60111;48.286;7.812;2022-09-09T14:18:41;2.98;;;0.53;;
72205;SDS011;60111;48.286;7.812;2022-09-09T14:21:14;1.40;;;0.50;;
72205;SDS011;60111;48.286;7.812;2022-09-09T14:23:47;2.03;;;0.60;;
72205;SDS011;60111;48.286;7.812;2022-09-09T14:28:54;1.47;;;0.50;;
72205;SDS011;60111;48.286;7.812;2022-09-09T14:31:27;1.17;;;0.70;;
72205;SDS011;60111;48.286;7.812;2022-09-09T14:34:00;2.00;;;0.70;;
72205;SDS011;60111;48.286;7.812;2022-09-09T14:36:33;2.47;;;0.60;;
72205;SDS011;60111;48.286;7.812;2022-09-09T14:39:05;2.10;;;0.50;;
72205;SDS011;60111;48.286;7.812;2022-09-09T14:41:38;3.07;;;0.80;;
72205;SDS011;60111;48.286;7.812;2022-09-09T14:44:11;3.45;;;0.60;;
72205;SDS011;60111;48.286;7.812;2022-09-09T14:46:43;1.47;;;0.60;;
72205;SDS011;60111;48.286;7.812;2022-09-09T14:49:16;1.60;;;0.65;;
72205;SDS011;60111;48.286;7.812;2022-09-09T14:51:48;2.10;;;0.78;;
72205;SDS011;60111;48.286;7.812;2022-09-09T14:54:21;4.67;;;1.07;;
72205;SDS011;60111;48.286;7.812;2022-09-09T14:56:54;1.50;;;0.60;;
72205;SDS011;60111;48.286;7.812;2022-09-09T14:59:27;4.70;;;0.77;;
72205;SDS011;60111;48.286;7.812;2022-09-09T15:02:00;1.25;;;0.62;;
72205;SDS011;60111;48.286;7.812;2022-09-09T15:04:34;1.57;;;0.40;;
72205;SDS011;60111;48.286;7.812;2022-09-09T15:07:07;1.40;;;0.50;;
72205;SDS011;60111;48.286;7.812;2022-09-09T15:09:41;2.62;;;0.50;;
72205;SDS011;60111;48.286;7.812;2022-09-09T15:12:14;1.50;;;0.50;;
72205;SDS011;60111;48.286;7.812;2022-09-09T15:14:48;2.83;;;0.53;;
72205;SDS011;60111;48.286;7.812;2022-09-09T15:17:21;1.03;;;0.40;;
72205;SDS011;60111;48.286;7.812;2022-09-09T15:22:27;1.47;;;0.40;;
72205;SDS011;60111;48.286;7.812;2022-09-09T15:25:00;2.67;;;0.70;;
72205;SDS011;60111;48.286;7.812;2022-09-09T15:27:32;5.58;;;0.60;;
72205;SDS011;60111;48.286;7.812;2022-09-09T15:30:06;1.40;;;0.70;;
72205;SDS011;60111;48.286;7.812;2022-09-09T15:32:41;2.62;;;0.50;;
72205;SDS011;60111;48.286;7.812;2022-09-09T15:35:14;1.77;;;0.40;;
72205;SDS011;60111;48.286;7.812;2022-09-09T15:37:47;2.00;;;0.75;;
72205;SDS011;60111;48.286;7.812;2022-09-09T15:40:19;3.92;;;0.50;;
72205;SDS011;60111;48.286;7.812;2022-09-09T15:42:52;5.03;;;1.15;;
72205;SDS011;60111;48.286;7.812;2022-09-09T15:45:24;1.27;;;0.60;;
72205;SDS011;60111;48.286;7.812;2022-09-09T15:47:57;2.12;;;0.68;;
72205;SDS011;60111;48.286;7.812;2022-09-09T15:50:31;2.45;;;0.72;;
72205;SDS011;60111;48.286;7.812;2022-09-09T15:53:04;2.27;;;0.50;;
72205;SDS011;60111;48.286;7.812;2022-09-09T15:55:37;1.85;;;0.50;;
72205;SDS011;60111;48.286;7.812;2022-09-09T15:58:10;3.85;;;0.72;;
72205;SDS011;60111;48.286;7.812;2022-09-09T16:00:43;1.00;;;0.50;;
72205;SDS011;60111;48.286;7.812;2022-09-09T16:03:16;1.30;;;0.53;;
72205;SDS011;60111;48.286;7.812;2022-09-09T16:05:52;3.08;;;0.75;;
72205;SDS011;60111;48.286;7.812;2022-09-09T16:08:24;2.75;;;0.70;;
72205;SDS011;60111;48.286;7.812;2022-09-09T16:11:06;1.35;;;0.60;;
72205;SDS011;60111;48.286;7.812;2022-09-09T16:13:41;3.02;;;0.65;;
72205;SDS011;60111;48.286;7.812;2022-09-09T16:16:17;1.45;;;0.50;;
72205;SDS011;60111;48.286;7.812;2022-09-09T16:18:54;1.10;;;0.40;;
72205;SDS011;60111;48.286;7.812;2022-09-09T16:21:29;2.40;;;0.82;;
72205;SDS011;60111;48.286;7.812;2022-09-09T16:24:04;3.37;;;0.82;;
72205;SDS011;60111;48.286;7.812;2022-09-09T16:26:39;2.30;;;0.70;;
72205;SDS011;60111;48.286;7.812;2022-09-09T16:29:16;1.30;;;0.70;;
72205;SDS011;60111;48.286;7.812;2022-09-09T16:34:22;3.33;;;0.78;;
72205;SDS011;60111;48.286;7.812;2022-09-09T16:36:56;6.87;;;1.17;;
72205;SDS011;60111;48.286;7.812;2022-09-09T16:39:28;1.93;;;0.67;;
72205;SDS011;60111;48.286;7.812;2022-09-09T16:42:01;3.70;;;0.90;;
72205;SDS011;60111;48.286;7.812;2022-09-09T16:44:35;3.08;;;0.68;;
72205;SDS011;60111;48.286;7.812;2022-09-09T16:47:08;1.70;;;0.72;;
72205;SDS011;60111;48.286;7.812;2022-09-09T16:49:40;3.83;;;0.80;;
72205;SDS011;60111;48.286;7.812;2022-09-09T16:52:13;1.10;;;0.68;;
72205;SDS011;60111;48.286;7.812;2022-09-09T16:54:46;3.75;;;0.90;;
72205;SDS011;60111;48.286;7.812;2022-09-09T16:57:18;3.02;;;0.90;;
72205;SDS011;60111;48.286;7.812;2022-09-09T16:59:51;2.02;;;0.80;;
72205;SDS011;60111;48.286;7.812;2022-09-09T17:02:25;3.43;;;1.30;;
72205;SDS011;60111;48.286;7.812;2022-09-09T17:04:57;2.85;;;0.60;;
72205;SDS011;60111;48.286;7.812;2022-09-09T17:07:30;1.00;;;0.30;;
72205;SDS011;60111;48.286;7.812;2022-09-09T17:10:03;3.90;;;1.42;;
72205;SDS011;60111;48.286;7.812;2022-09-09T17:12:37;1.73;;;0.60;;
72205;SDS011;60111;48.286;7.812;2022-09-09T17:15:10;2.95;;;0.78;;
72205;SDS011;60111;48.286;7.812;2022-09-09T17:17:43;2.17;;;0.60;;
72205;SDS011;60111;48.286;7.812;2022-09-09T17:20:18;1.98;;;0.78;;
72205;SDS011;60111;48.286;7.812;2022-09-09T17:22:51;2.33;;;0.90;;
72205;SDS011;60111;48.286;7.812;2022-09-09T17:25:24;1.27;;;0.65;;
72205;SDS011;60111;48.286;7.812;2022-09-09T17:27:56;4.87;;;0.70;;
72205;SDS011;60111;48.286;7.812;2022-09-09T17:30:33;2.10;;;0.80;;
72205;SDS011;60111;48.286;7.812;2022-09-09T17:33:09;2.17;;;0.62;;
72205;SDS011;60111;48.286;7.812;2022-09-09T17:35:43;3.25;;;0.53;;
72205;SDS011;60111;48.286;7.812;2022-09-09T17:38:16;1.05;;;0.57;;
72205;SDS011;60111;48.286;7.812;2022-09-09T17:40:48;3.70;;;0.82;;
72205;SDS011;60111;48.286;7.812;2022-09-09T17:43:21;2.00;;;0.70;;
72205;SDS011;60111;48.286;7.812;2022-09-09T17:45:54;3.62;;;0.93;;